Time;durP1;ratioP1;P1;durP2;ratioP2;P2;SDS_P1;SDS_P2;PMS_P1;PMS_P2;Temp;Humidity;BMP_temperature;BMP_pressure;BME280_temperature;BME280_humidity;BME280_pressure;Samples;Min_cycle;Max_cycle;Signal;HPM_P1;HPM_P2
2022/10/20 00:00:57;;;;;;;;;;;;;;;19.41;65.21;102046.58;2357171;75;53082;-72
2022/10/20 00:03:59;;;;;;;;;;;;;;;19.40;65.21;102040.88;2357187;75;50149;-72
2022/10/20 00:07:00;;;;;;;;;;;;;;;19.40;65.28;102040.37;2357428;75;51521;-72
2022/10/20 00:10:02;;;;;;;;;;;;;;;19.40;65.27;102040.37;2357616;75;51555;-72
2022/10/20 00:13:03;;;;;;;;;;;;;;;19.39;65.30;102039.17;2357691;75;51587;-72
2022/10/20 00:16:05;;;;;;;;;;;;;;;19.38;65.11;102043.70;2322578;75;51051;-72
2022/10/20 00:19:07;;;;;;;;;;;;;;;19.39;65.21;102040.52;2330614;75;53834;-72
2022/10/20 00:22:08;;;;;;;;;;;;;;;19.39;65.17;102029.78;2357794;75;51488;-73
2022/10/20 00:25:10;;;;;;;;;;;;;;;19.36;65.14;102033.11;2357364;75;51398;-72
2022/10/20 00:28:11;;;;;;;;;;;;;;;19.36;65.06;102030.94;2330400;75;49364;-72
2022/10/20 00:31:13;;;;;;;;;;;;;;;19.36;65.17;102033.11;2321064;75;50331;-71
2022/10/20 00:34:15;;;;;;;;;;;;;;;19.35;65.08;102032.78;2317135;77;50696;-72
2022/10/20 00:37:16;;;;;;;;;;;;;;;19.38;65.06;102032.14;2309517;76;50539;-71
2022/10/20 00:40:18;;;;;;;;;;;;;;;19.38;65.12;102034.31;2283514;77;50896;-72
2022/10/20 00:43:19;;;;;;;;;;;;;;;19.38;64.98;102022.73;2309200;77;51505;-72
2022/10/20 00:46:22;;;;;;;;;;;;;;;19.36;65.10;102018.35;2319406;75;51458;-72
2022/10/20 00:49:24;;;;;;;;;;;;;;;19.36;65.07;102017.01;2336319;75;51324;-72
2022/10/20 00:52:26;;;;;;;;;;;;;;;19.37;65.07;102003.12;2283746;77;51102;-72
2022/10/20 00:55:31;;;;;;;;;;;;;;;19.35;64.88;102007.28;2317281;77;51521;-72
2022/10/20 00:58:34;;;;;;;;;;;;;;;19.36;64.94;101997.38;2317253;77;50832;-72
2022/10/20 01:01:35;;;;;;;;;;;;;;;19.34;64.83;101999.37;2317420;77;50468;-72
2022/10/20 01:04:37;;;;;;;;;;;;;;;19.33;64.87;101997.20;2283431;77;49571;-72
2022/10/20 01:07:38;;;;;;;;;;;;;;;19.33;64.73;101993.17;2317189;77;50420;-72
2022/10/20 01:10:41;;;;;;;;;;;;;;;19.33;64.83;101982.44;2319720;75;50367;-72
2022/10/20 01:13:44;;;;;;;;;;;;;;;19.35;64.87;101984.47;2354305;75;51584;-72
2022/10/20 01:16:57;;;;;;;;;;;;;;;19.34;64.75;101989.51;2322645;75;51655;-72
2022/10/20 01:20:18;;;;;;;;;;;;;;;19.34;64.70;101985.48;2358107;75;51718;-72
2022/10/20 01:23:21;;;;;;;;;;;;;;;19.34;64.65;101985.95;2360298;75;50852;-72
2022/10/20 01:26:27;;;;;;;;;;;;;;;19.33;64.56;101981.09;2317736;75;50959;-72
2022/10/20 01:29:29;;;;;;;;;;;;;;;19.33;64.74;101980.25;2324541;75;52686;-72
2022/10/20 01:32:33;;;;;;;;;;;;;;;19.31;64.72;101971.01;2361657;75;50631;-72
2022/10/20 01:35:36;;;;;;;;;;;;;;;19.31;64.73;101972.85;2359792;75;50816;-71
2022/10/20 01:38:45;;;;;;;;;;;;;;;19.32;64.80;101959.29;2358191;75;50775;-72
2022/10/20 01:41:51;;;;;;;;;;;;;;;19.32;64.78;101963.31;2282686;77;51672;-72
2022/10/20 01:44:54;;;;;;;;;;;;;;;19.31;64.72;101954.91;2317638;76;50460;-72
2022/10/20 01:47:56;;;;;;;;;;;;;;;19.30;64.68;101950.55;2318795;77;51497;-72
2022/10/20 01:50:57;;;;;;;;;;;;;;;19.31;64.65;101948.70;2318359;76;50852;-71
2022/10/20 01:53:59;;;;;;;;;;;;;;;19.29;64.60;101949.34;2283526;77;51116;-72
2022/10/20 01:57:02;;;;;;;;;;;;;;;19.30;64.65;101953.23;2317406;77;50780;-72
2022/10/20 02:00:10;;;;;;;;;;;;;;;19.29;64.63;101946.19;2317401;75;51605;-72
2022/10/20 02:03:26;;;;;;;;;;;;;;;19.30;64.68;101937.63;2317436;76;50440;-73
2022/10/20 02:06:29;;;;;;;;;;;;;;;19.29;64.59;101927.41;2283535;77;50985;-72
2022/10/20 02:09:32;;;;;;;;;;;;;;;19.28;64.51;101927.05;2320254;75;51512;-73
2022/10/20 02:12:35;;;;;;;;;;;;;;;19.31;64.44;101911.96;2325683;76;50229;-72
2022/10/20 02:15:37;;;;;;;;;;;;;;;19.30;64.57;101914.31;2335727;76;51541;-72
2022/10/20 02:18:40;;;;;;;;;;;;;;;19.29;64.58;101913.12;2335492;76;53031;-72
2022/10/20 02:21:41;;;;;;;;;;;;;;;19.28;64.57;101906.92;2335892;76;50467;-73
2022/10/20 02:24:43;;;;;;;;;;;;;;;19.27;64.53;101906.59;2335750;76;50419;-72
2022/10/20 02:27:46;;;;;;;;;;;;;;;19.27;64.57;101897.20;2335668;76;51395;-72
2022/10/20 02:30:48;;;;;;;;;;;;;;;19.28;64.54;101895.34;2304034;76;50095;-72
2022/10/20 02:33:49;;;;;;;;;;;;;;;19.28;64.63;101902.05;2335874;76;51524;-72
2022/10/20 02:36:52;;;;;;;;;;;;;;;19.27;64.60;101906.59;2335859;76;51518;-72
2022/10/20 02:39:54;;;;;;;;;;;;;;;19.26;64.51;101898.17;2331268;75;50452;-73
2022/10/20 02:42:56;;;;;;;;;;;;;;;19.26;64.49;101894.66;2257846;77;49557;-72
2022/10/20 02:45:57;;;;;;;;;;;;;;;19.26;64.61;101894.15;2282031;76;50745;-72
2022/10/20 02:48:59;;;;;;;;;;;;;;;19.27;64.60;101895.85;2317232;76;51528;-72
2022/10/20 02:52:00;;;;;;;;;;;;;;;19.28;64.56;101891.32;2282410;77;51518;-72
2022/10/20 02:55:02;;;;;;;;;;;;;;;19.26;64.51;101887.44;2283538;77;51005;-72
2022/10/20 02:58:03;;;;;;;;;;;;;;;19.25;64.20;101888.45;2282601;77;51437;-72
2022/10/20 03:01:05;;;;;;;;;;;;;;;19.26;64.33;101891.47;2317539;76;50413;-72
2022/10/20 03:04:07;;;;;;;;;;;;;;;19.27;64.32;101887.80;2346947;75;50367;-72
2022/10/20 03:07:08;;;;;;;;;;;;;;;19.27;64.40;101885.12;2283622;77;51779;-72
2022/10/20 03:10:10;;;;;;;;;;;;;;;19.25;64.40;101877.72;2297141;75;50698;-72
2022/10/20 03:13:13;;;;;;;;;;;;;;;19.26;64.38;101883.41;2295514;77;51490;-72
2022/10/20 03:16:14;;;;;;;;;;;;;;;19.24;64.32;101876.05;2295704;77;50392;-72
2022/10/20 03:19:16;;;;;;;;;;;;;;;19.24;64.31;101872.50;2264867;77;49540;-72
2022/10/20 03:22:18;;;;;;;;;;;;;;;19.23;64.30;101873.00;2301743;75;50374;-72
2022/10/20 03:25:19;;;;;;;;;;;;;;;19.22;64.37;101860.59;2262127;77;49493;-72
2022/10/20 03:28:21;;;;;;;;;;;;;;;19.22;64.30;101864.63;2344149;75;50318;-72
2022/10/20 03:31:22;;;;;;;;;;;;;;;19.22;64.19;101857.91;2266888;76;50240;-72
2022/10/20 03:34:24;;;;;;;;;;;;;;;19.22;64.29;101856.57;2376978;75;51550;-73
2022/10/20 03:37:25;;;;;;;;;;;;;;;19.22;64.16;101856.57;2343976;75;51553;-73
2022/10/20 03:40:27;;;;;;;;;;;;;;;19.21;64.08;101859.40;2343989;75;51416;-73
2022/10/20 03:43:29;;;;;;;;;;;;;;;19.20;64.15;101854.54;2343603;75;52531;-72
2022/10/20 03:46:30;;;;;;;;;;;;;;;19.21;64.15;101853.53;2377004;74;50368;-72
2022/10/20 03:49:32;;;;;;;;;;;;;;;19.21;64.17;101850.84;2343961;75;50470;-72
2022/10/20 03:52:35;;;;;;;;;;;;;;;19.18;64.14;101855.19;2377038;75;51554;-72
2022/10/20 03:55:37;;;;;;;;;;;;;;;19.19;64.06;101856.03;2317899;75;50070;-72
2022/10/20 03:58:38;;;;;;;;;;;;;;;19.20;64.15;101854.54;2341359;75;52309;-72
2022/10/20 04:01:42;;;;;;;;;;;;;;;19.20;64.10;101858.56;2345818;75;50644;-73
2022/10/20 04:04:43;;;;;;;;;;;;;;;19.18;64.04;101853.02;2376858;75;51573;-72
2022/10/20 04:07:45;;;;;;;;;;;;;;;19.20;64.08;101853.70;2328839;75;50992;-72
2022/10/20 04:10:47;;;;;;;;;;;;;;;19.18;64.15;101843.63;2316848;76;51438;-72
2022/10/20 04:13:49;;;;;;;;;;;;;;;19.16;64.04;101846.45;2330407;76;51580;-73
2022/10/20 04:16:50;;;;;;;;;;;;;;;19.17;64.03;101841.45;2345798;75;50384;-72
2022/10/20 04:19:52;;;;;;;;;;;;;;;19.18;63.88;101836.91;2330298;75;52364;-72
2022/10/20 04:22:53;;;;;;;;;;;;;;;19.18;63.86;101836.41;2377059;75;51558;-71
2022/10/20 04:25:55;;;;;;;;;;;;;;;19.18;63.88;101833.73;2376860;75;50381;-72
2022/10/20 04:28:56;;;;;;;;;;;;;;;19.20;64.02;101837.61;2360348;75;50725;-72
2022/10/20 04:31:58;;;;;;;;;;;;;;;19.17;63.91;101828.03;2320281;76;52643;-72
2022/10/20 04:35:00;;;;;;;;;;;;;;;19.18;63.82;101824.84;2327884;76;52506;-72
2022/10/20 04:38:01;;;;;;;;;;;;;;;19.16;63.85;101827.67;2277709;76;51511;-72
2022/10/20 04:41:03;;;;;;;;;;;;;;;19.17;63.92;101815.12;2328167;76;51622;-72
2022/10/20 04:44:05;;;;;;;;;;;;;;;19.16;63.87;101814.25;2252597;76;51067;-72
2022/10/20 04:47:06;;;;;;;;;;;;;;;19.14;63.89;101812.25;2278164;76;51401;-72
2022/10/20 04:50:08;;;;;;;;;;;;;;;19.15;63.74;101808.56;2277555;76;51506;-73
2022/10/20 04:53:10;;;;;;;;;;;;;;;19.13;63.91;101805.19;2277562;76;51490;-73
2022/10/20 04:56:13;;;;;;;;;;;;;;;19.10;63.68;101803.66;2252770;76;52571;-73
2022/10/20 04:59:14;;;;;;;;;;;;;;;19.12;63.82;101795.47;2336010;75;51554;-73
2022/10/20 05:02:16;;;;;;;;;;;;;;;19.14;63.95;101794.81;2320712;75;50114;-73
2022/10/20 05:05:18;;;;;;;;;;;;;;;19.15;64.05;101789.78;2320313;76;51478;-72
2022/10/20 05:08:19;;;;;;;;;;;;;;;19.17;64.24;101793.66;2294081;76;53345;-74
2022/10/20 05:11:21;;;;;;;;;;;;;;;19.17;64.25;101789.63;2340544;75;51532;-74
2022/10/20 05:14:23;;;;;;;;;;;;;;;19.17;64.40;101789.13;2354469;75;51563;-74
2022/10/20 05:17:24;;;;;;;;;;;;;;;19.17;64.37;101787.78;2354676;74;51502;-74
2022/10/20 05:20:26;;;;;;;;;;;;;;;19.14;64.31;101784.92;2332209;75;51752;-74
2022/10/20 05:23:28;;;;;;;;;;;;;;;19.15;64.59;101781.73;2332041;75;50384;-76
2022/10/20 05:26:33;;;;;;;;;;;;;;;19.14;64.42;101786.27;2355228;75;50374;-79
2022/10/20 05:29:33;;;;;;;;;;;;;;;19.14;64.42;101783.58;2332819;75;22300;-78
2022/10/20 05:32:35;;;;;;;;;;;;;;;19.17;64.46;101774.38;2353415;75;50753;-77
2022/10/20 05:35:36;;;;;;;;;;;;;;;19.16;64.59;101776.69;2306414;76;51023;-77
2022/10/20 05:38:39;;;;;;;;;;;;;;;19.14;64.67;101780.06;2344127;76;52303;-77
2022/10/20 05:41:41;;;;;;;;;;;;;;;19.13;64.31;101783.72;2344403;76;51506;-77
2022/10/20 05:44:42;;;;;;;;;;;;;;;19.12;64.37;101782.05;2307266;76;51813;-77
2022/10/20 05:47:44;;;;;;;;;;;;;;;19.13;64.37;101779.70;2344031;76;51497;-78
2022/10/20 05:50:46;;;;;;;;;;;;;;;19.12;64.38;101787.42;2344192;76;51509;-77
2022/10/20 05:53:47;;;;;;;;;;;;;;;19.12;64.47;101784.23;2343885;76;51580;-77
2022/10/20 05:56:49;;;;;;;;;;;;;;;19.10;64.33;101788.91;2331659;75;52480;-77
2022/10/20 05:59:50;;;;;;;;;;;;;;;19.10;64.10;101784.88;2369343;75;50795;-79
2022/10/20 06:02:53;;;;;;;;;;;;;;;19.12;64.33;101787.42;2367984;75;50345;-79
2022/10/20 06:05:58;;;;;;;;;;;;;;;19.13;64.53;101792.61;2320958;76;51673;-80
2022/10/20 06:09:00;;;;;;;;;;;;;;;19.15;64.54;101784.41;2336949;75;50088;-79
2022/10/20 06:12:01;;;;;;;;;;;;;;;19.15;64.52;101796.48;2303347;76;51513;-79
2022/10/20 06:15:03;;;;;;;;;;;;;;;19.11;64.52;101796.45;2302672;77;51543;-80
2022/10/20 06:18:05;;;;;;;;;;;;;;;19.10;64.10;101797.46;2297605;76;50618;-79
2022/10/20 06:21:07;;;;;;;;;;;;;;;19.08;64.33;101805.66;2263643;77;51051;-78
2022/10/20 06:24:09;;;;;;;;;;;;;;;19.10;64.18;101796.95;2263510;77;50672;-78
2022/10/20 06:27:10;;;;;;;;;;;;;;;19.11;64.22;101795.11;2296483;77;50426;-78
2022/10/20 06:30:12;;;;;;;;;;;;;;;19.08;64.00;101791.41;2296638;77;50392;-78
2022/10/20 06:33:15;;;;;;;;;;;;;;;19.12;64.01;101816.93;2263464;77;50926;-80
2022/10/20 06:36:17;;;;;;;;;;;;;;;19.13;64.07;101799.31;2264430;77;24664;-79
2022/10/20 06:39:19;;;;;;;;;;;;;;;19.11;63.61;101802.69;2296524;76;50776;-79
2022/10/20 06:42:21;;;;;;;;;;;;;;;19.12;63.67;101795.47;2296658;77;50783;-78
2022/10/20 06:45:22;;;;;;;;;;;;;;;19.15;63.63;101797.83;2278971;76;51816;-78
2022/10/20 06:48:24;;;;;;;;;;;;;;;19.18;63.80;101792.64;2267186;76;51544;-78
2022/10/20 06:51:26;;;;;;;;;;;;;;;19.17;63.26;101799.02;2334115;76;50630;-80
2022/10/20 06:54:27;;;;;;;;;;;;;;;19.20;63.41;101791.48;2333774;76;51501;-79
2022/10/20 06:57:31;;;;;;;;;;;;;;;19.24;63.45;101784.81;2307042;76;50917;-78
2022/10/20 07:00:32;;;;;;;;;;;;;;;19.26;63.43;101788.16;2333562;76;51462;-77
2022/10/20 07:03:34;;;;;;;;;;;;;;;19.28;63.34;101794.20;2333336;76;51564;-78
2022/10/20 07:06:37;;;;;;;;;;;;;;;19.27;63.40;101783.66;2333741;76;50419;-77
2022/10/20 07:09:39;;;;;;;;;;;;;;;19.26;63.50;101776.58;2306942;76;51053;-78
2022/10/20 07:12:40;;;;;;;;;;;;;;;19.23;63.50;101778.25;2333996;76;50602;-78
2022/10/20 07:15:42;;;;;;;;;;;;;;;19.24;63.43;101783.47;2333834;76;50745;-79
2022/10/20 07:18:43;;;;;;;;;;;;;;;19.25;63.71;101780.28;2318502;75;51691;-76
2022/10/20 07:21:45;;;;;;;;;;;;;;;19.26;63.70;101772.56;2308049;76;51028;-77
2022/10/20 07:24:47;;;;;;;;;;;;;;;19.30;63.80;101784.67;2339868;76;51524;-77
2022/10/20 07:27:48;;;;;;;;;;;;;;;19.22;64.02;101777.92;2340068;74;51498;-77
2022/10/20 07:30:50;;;;;;;;;;;;;;;19.24;64.03;101790.66;2340052;76;51486;-77
2022/10/20 07:33:51;;;;;;;;;;;;;;;19.24;64.01;101780.79;2307589;76;51378;-78
2022/10/20 07:36:53;;;;;;;;;;;;;;;19.24;64.04;101779.92;2307003;74;53912;-77
2022/10/20 07:39:55;;;;;;;;;;;;;;;19.23;64.11;101769.70;2340060;76;50690;-76
2022/10/20 07:42:56;;;;;;;;;;;;;;;19.25;64.11;101769.04;2306885;76;50701;-76
2022/10/20 07:45:58;;;;;;;;;;;;;;;19.28;64.04;101767.38;2288719;75;50968;-77
2022/10/20 07:49:00;;;;;;;;;;;;;;;19.28;64.06;101764.69;2267760;78;51540;-78
2022/10/20 07:52:01;;;;;;;;;;;;;;;19.29;64.06;101766.39;2314739;77;50353;-77
2022/10/20 07:55:03;;;;;;;;;;;;;;;19.27;64.09;101764.87;2287175;78;50272;-78
2022/10/20 07:58:04;;;;;;;;;;;;;;;19.27;64.16;101760.84;2286005;76;51440;-79
2022/10/20 08:01:06;;;;;;;;;;;;;;;19.25;64.27;101758.81;2288088;77;50241;-78
2022/10/20 08:04:08;;;;;;;;;;;;;;;19.24;64.25;101757.98;2256913;77;51403;-77
2022/10/20 08:07:10;;;;;;;;;;;;;;;19.21;64.37;101756.94;2267246;77;50423;-78
2022/10/20 08:10:11;;;;;;;;;;;;;;;19.22;64.36;101758.64;2254700;78;51096;-79
2022/10/20 08:13:13;;;;;;;;;;;;;;;19.22;64.39;101754.61;2286070;77;51492;-78
2022/10/20 08:16:14;;;;;;;;;;;;;;;19.23;64.38;101747.39;2335146;75;51573;-79
2022/10/20 08:19:16;;;;;;;;;;;;;;;19.22;64.38;101745.22;2328449;76;50366;-79
2022/10/20 08:22:18;;;;;;;;;;;;;;;19.24;64.34;101749.06;2294464;76;51243;-78
2022/10/20 08:25:20;;;;;;;;;;;;;;;19.23;64.36;101748.23;2285961;76;51487;-78
2022/10/20 08:28:22;;;;;;;;;;;;;;;19.24;64.35;101744.56;2267740;78;51519;-78
2022/10/20 08:31:23;;;;;;;;;;;;;;;19.25;64.25;101738.19;2265636;78;50380;-79
2022/10/20 08:34:25;;;;;;;;;;;;;;;19.26;64.18;101729.12;2244104;78;51166;-78
2022/10/20 08:37:28;;;;;;;;;;;;;;;19.26;64.18;101730.97;2323175;75;50440;-78
2022/10/20 08:40:30;;;;;;;;;;;;;;;19.24;64.12;101731.15;2369219;75;50597;-79
2022/10/20 08:43:31;;;;;;;;;;;;;;;19.24;64.13;101732.48;2325971;76;50333;-78
2022/10/20 08:46:34;;;;;;;;;;;;;;;19.23;64.19;101732.13;2278889;77;50100;-78
2022/10/20 08:49:36;;;;;;;;;;;;;;;19.21;64.25;101731.95;2286256;76;52497;-78
2022/10/20 08:52:38;;;;;;;;;;;;;;;19.17;64.39;101727.42;2291560;76;50268;-77
2022/10/20 08:55:40;;;;;;;;;;;;;;;19.22;64.33;101732.31;2326448;76;51669;-77
2022/10/20 08:58:42;;;;;;;;;;;;;;;19.20;64.45;101721.72;2344352;75;51029;-77
2022/10/20 09:01:44;;;;;;;;;;;;;;;19.17;64.54;101715.34;2377513;75;50466;-78
2022/10/20 09:04:47;;;;;;;;;;;;;;;19.21;64.37;101714.52;2370091;75;50394;-78
2022/10/20 09:07:51;;;;;;;;;;;;;;;19.14;64.49;101717.84;2340092;75;50830;-76
2022/10/20 09:10:53;;;;;;;;;;;;;;;19.13;64.48;101701.90;2285174;77;51046;-78
2022/10/20 09:13:55;;;;;;;;;;;;;;;19.12;63.89;101706.43;2293035;77;51542;-77
2022/10/20 09:16:56;;;;;;;;;;;;;;;19.18;63.60;101710.30;2317588;76;51495;-78
2022/10/20 09:19:58;;;;;;;;;;;;;;;19.19;62.65;101707.12;2292984;77;51498;-78
2022/10/20 09:23:00;;;;;;;;;;;;;;;19.16;61.82;101706.94;2278041;77;51014;-77
2022/10/20 09:26:01;;;;;;;;;;;;;;;19.15;61.45;101699.91;2312143;77;50207;-77
2022/10/20 09:29:07;;;;;;;;;;;;;;;19.12;61.14;101693.52;2310192;76;50355;-77
2022/10/20 09:32:19;;;;;;;;;;;;;;;19.12;61.19;101689.50;2310209;77;50298;-78
2022/10/20 09:35:24;;;;;;;;;;;;;;;19.11;61.09;101675.73;2319057;75;50187;-77
2022/10/20 09:38:28;;;;;;;;;;;;;;;19.05;59.72;101685.27;2352547;75;51660;-77
2022/10/20 09:41:30;;;;;;;;;;;;;;;19.04;60.33;101667.50;2319002;75;51701;-77
2022/10/20 09:44:36;;;;;;;;;;;;;;;19.03;60.21;101666.31;2309796;77;50825;-77
2022/10/20 09:47:37;;;;;;;;;;;;;;;19.00;60.37;101669.32;2288085;76;49751;-76
2022/10/20 09:50:39;;;;;;;;;;;;;;;18.99;60.21;101656.92;2288551;77;50915;-77
2022/10/20 09:53:42;;;;;;;;;;;;;;;18.97;60.44;101661.60;2309719;77;50388;-77
2022/10/20 09:56:45;;;;;;;;;;;;;;;18.99;60.53;101650.22;2306234;77;50477;-77
2022/10/20 09:59:48;;;;;;;;;;;;;;;18.98;60.67;101645.33;2309770;76;50667;-77
2022/10/20 10:02:50;;;;;;;;;;;;;;;18.99;60.73;101639.48;2309715;77;50389;-77
2022/10/20 10:05:52;;;;;;;;;;;;;;;19.00;60.66;101631.27;2309596;77;51564;-77
2022/10/20 10:08:54;;;;;;;;;;;;;;;18.98;60.68;101621.70;2309812;77;50505;-77
2022/10/20 10:11:56;;;;;;;;;;;;;;;18.99;60.84;101618.87;2276335;77;50988;-77
2022/10/20 10:14:59;;;;;;;;;;;;;;;19.00;60.98;101622.38;2309720;77;50696;-77
2022/10/20 10:18:03;;;;;;;;;;;;;;;19.01;60.98;101618.69;2309671;77;50812;-77
2022/10/20 10:21:05;;;;;;;;;;;;;;;19.00;60.91;101598.24;2307731;77;51627;-77
2022/10/20 10:24:09;;;;;;;;;;;;;;;19.00;61.09;101594.22;2275988;77;51335;-77
2022/10/20 10:27:21;;;;;;;;;;;;;;;19.01;61.10;101588.70;2309769;77;50476;-77
2022/10/20 10:30:27;;;;;;;;;;;;;;;19.00;61.12;101587.52;2309814;77;51596;-76
2022/10/20 10:33:29;;;;;;;;;;;;;;;18.99;61.15;101589.87;2316498;75;51505;-77
2022/10/20 10:36:32;;;;;;;;;;;;;;;19.01;61.20;101579.80;2288785;75;50101;-77
2022/10/20 10:39:33;;;;;;;;;;;;;;;19.00;61.13;101571.42;2309650;77;51544;-76
2022/10/20 10:42:45;;;;;;;;;;;;;;;18.99;60.83;101557.69;2309787;77;51488;-77
2022/10/20 10:46:04;;;;;;;;;;;;;;;18.97;61.04;101565.05;2309566;77;50421;-76
2022/10/20 10:49:24;;;;;;;;;;;;;;;18.97;60.90;101554.32;2297652;75;52002;-77
2022/10/20 10:52:39;;;;;;;;;;;;;;;18.96;60.91;101548.59;2349561;75;51497;-77
2022/10/20 10:55:45;;;;;;;;;;;;;;;19.00;61.10;101544.09;2348103;75;50221;-77
2022/10/20 10:59:00;;;;;;;;;;;;;;;18.97;61.18;101549.79;2348413;75;50649;-77
2022/10/20 11:02:15;;;;;;;;;;;;;;;18.98;61.18;101534.53;2293544;75;52709;-76
2022/10/20 11:05:27;;;;;;;;;;;;;;;18.97;61.36;101525.66;2309508;77;51484;-77
2022/10/20 11:08:36;;;;;;;;;;;;;;;18.98;61.39;101520.61;2251176;77;51621;-77
2022/10/20 11:11:55;;;;;;;;;;;;;;;18.96;61.20;101521.30;2310050;76;50411;-79
2022/10/20 11:15:14;;;;;;;;;;;;;;;18.98;61.43;101516.59;2214164;79;50992;-79
2022/10/20 11:18:20;;;;;;;;;;;;;;;18.96;61.37;101507.89;2310362;77;50684;-79
2022/10/20 11:21:27;;;;;;;;;;;;;;;18.99;61.43;101498.68;2310192;76;50728;-79
2022/10/20 11:24:47;;;;;;;;;;;;;;;19.01;61.44;101492.62;2310002;77;50453;-78
2022/10/20 11:27:48;;;;;;;;;;;;;;;18.98;61.51;101484.41;2288172;77;50486;-78
2022/10/20 11:30:50;;;;;;;;;;;;;;;18.97;61.44;101473.86;2310159;77;51484;-78
2022/10/20 11:33:53;;;;;;;;;;;;;;;19.01;61.46;101465.33;2321657;75;50728;-78
2022/10/20 11:37:08;;;;;;;;;;;;;;;19.02;61.43;101462.13;2309905;76;50863;-78
2022/10/20 11:40:13;;;;;;;;;;;;;;;19.03;61.45;101471.84;2310004;77;50842;-79
2022/10/20 11:43:29;;;;;;;;;;;;;;;19.01;61.43;101459.09;2286025;77;49508;-79
2022/10/20 11:46:32;;;;;;;;;;;;;;;18.99;61.43;101457.94;2308894;76;50877;-79
2022/10/20 11:49:33;;;;;;;;;;;;;;;19.04;61.50;101468.17;2310387;77;50807;-79
2022/10/20 11:52:54;;;;;;;;;;;;;;;19.00;61.48;101458.77;2310220;77;51483;-79
2022/10/20 11:56:00;;;;;;;;;;;;;;;18.99;61.51;101451.75;2276798;77;51267;-79
2022/10/20 11:59:06;;;;;;;;;;;;;;;18.99;61.57;101449.06;2310239;77;50967;-78
2022/10/20 12:02:18;;;;;;;;;;;;;;;18.99;61.57;101449.89;2310946;75;50229;-78
2022/10/20 12:05:39;;;;;;;;;;;;;;;19.00;61.53;101447.53;2323215;75;51532;-78
2022/10/20 12:08:42;;;;;;;;;;;;;;;19.00;61.53;101444.86;2276629;77;51016;-78
2022/10/20 12:11:51;;;;;;;;;;;;;;;18.98;61.68;101447.37;2310514;77;51454;-79
2022/10/20 12:14:56;;;;;;;;;;;;;;;18.98;61.66;101430.77;2310562;77;50697;-78
2022/10/20 12:17:59;;;;;;;;;;;;;;;18.98;61.61;101433.45;2310975;77;51464;-79
2022/10/20 12:21:01;;;;;;;;;;;;;;;18.94;61.70;101437.48;2277214;77;49928;-79
2022/10/20 12:24:04;;;;;;;;;;;;;;;18.96;61.78;101433.28;2306593;77;50837;-79
2022/10/20 12:27:10;;;;;;;;;;;;;;;18.94;61.80;101425.42;2335757;75;51562;-79
2022/10/20 12:30:20;;;;;;;;;;;;;;;18.95;61.86;101428.93;2350657;75;51499;-78
2022/10/20 12:33:23;;;;;;;;;;;;;;;18.96;61.87;101426.57;2305746;75;51784;-80
2022/10/20 12:36:26;;;;;;;;;;;;;;;18.96;61.93;101418.52;2300313;75;50666;-79
2022/10/20 12:39:28;;;;;;;;;;;;;;;18.95;62.21;101409.65;2310886;76;50660;-80
2022/10/20 12:42:30;;;;;;;;;;;;;;;18.93;62.03;101396.42;2311068;77;50676;-80
2022/10/20 12:45:39;;;;;;;;;;;;;;;18.92;61.99;101397.41;2288323;77;51017;-80
2022/10/20 12:48:42;;;;;;;;;;;;;;;18.95;62.02;101403.45;2310755;77;52091;-80
2022/10/20 12:51:53;;;;;;;;;;;;;;;18.95;61.84;101401.61;2311047;77;51678;-79
2022/10/20 12:54:56;;;;;;;;;;;;;;;18.94;62.20;101395.92;2310577;77;50327;-79
2022/10/20 12:58:16;;;;;;;;;;;;;;;18.93;62.08;101391.06;2276125;77;49590;-79
2022/10/20 13:01:18;;;;;;;;;;;;;;;18.96;62.32;101398.41;2310934;76;50185;-79
2022/10/20 13:04:37;;;;;;;;;;;;;;;18.97;62.30;101392.89;2320682;75;50739;-79
2022/10/20 13:07:51;;;;;;;;;;;;;;;18.99;62.26;101383.36;2354344;75;50672;-79
2022/10/20 13:10:53;;;;;;;;;;;;;;;19.00;62.31;101369.76;2359173;75;51801;-79
2022/10/20 13:13:56;;;;;;;;;;;;;;;18.99;62.38;101372.63;2358764;75;51526;-79
2022/10/20 13:17:11;;;;;;;;;;;;;;;19.01;62.33;101362.55;2359106;75;50165;-79
2022/10/20 13:20:21;;;;;;;;;;;;;;;19.01;62.32;101358.52;2358823;75;52529;-79
2022/10/20 13:23:41;;;;;;;;;;;;;;;19.00;62.36;101356.86;2297774;75;50921;-79
2022/10/20 13:26:44;;;;;;;;;;;;;;;18.99;62.39;101357.37;2358745;75;50740;-80
2022/10/20 13:29:46;;;;;;;;;;;;;;;18.98;62.35;101358.86;2359006;75;50800;-79
2022/10/20 13:32:55;;;;;;;;;;;;;;;18.97;62.37;101347.81;2320469;75;50986;-79
2022/10/20 13:35:58;;;;;;;;;;;;;;;18.97;62.37;101353.17;2299255;77;50062;-80
2022/10/20 13:39:18;;;;;;;;;;;;;;;18.96;62.31;101344.78;2310874;77;51438;-79
2022/10/20 13:42:21;;;;;;;;;;;;;;;18.95;62.41;101341.77;2310958;77;51565;-79
2022/10/20 13:45:36;;;;;;;;;;;;;;;18.93;62.44;101333.41;2310580;77;50902;-79
2022/10/20 13:48:49;;;;;;;;;;;;;;;18.94;62.43;101335.58;2277303;77;49647;-79
2022/10/20 13:51:51;;;;;;;;;;;;;;;18.94;62.44;101330.22;2310405;77;51451;-79
2022/10/20 13:54:53;;;;;;;;;;;;;;;18.95;62.45;101314.95;2310837;77;51478;-79
2022/10/20 13:57:59;;;;;;;;;;;;;;;18.93;62.45;101324.02;2310915;77;50784;-79
2022/10/20 14:01:01;;;;;;;;;;;;;;;18.93;62.54;101315.98;2277058;77;50999;-79
2022/10/20 14:04:04;;;;;;;;;;;;;;;18.93;62.53;101302.56;2285065;77;51269;-79
2022/10/20 14:07:12;;;;;;;;;;;;;;;18.93;62.51;101303.91;2309524;77;51451;-78
2022/10/20 14:10:21;;;;;;;;;;;;;;;18.93;62.55;101300.36;2310937;77;50776;-79
2022/10/20 14:13:24;;;;;;;;;;;;;;;18.89;62.62;101285.64;2252476;77;49414;-79
2022/10/20 14:16:26;;;;;;;;;;;;;;;18.90;62.65;101300.20;2310876;77;51496;-79
2022/10/20 14:19:28;;;;;;;;;;;;;;;18.89;62.65;101309.26;2310669;77;50665;-79
2022/10/20 14:22:29;;;;;;;;;;;;;;;18.89;62.67;101306.58;2310801;77;50464;-79
2022/10/20 14:25:31;;;;;;;;;;;;;;;18.90;62.62;101312.27;2277240;77;49680;-79
2022/10/20 14:28:33;;;;;;;;;;;;;;;18.88;62.67;101314.30;2310825;77;50417;-79
2022/10/20 14:31:34;;;;;;;;;;;;;;;18.88;62.67;101312.09;2310604;77;51353;-79
2022/10/20 14:34:36;;;;;;;;;;;;;;;18.86;62.65;101314.14;2333556;75;50126;-79
2022/10/20 14:37:39;;;;;;;;;;;;;;;18.87;62.71;101309.09;2312641;75;49658;-79
2022/10/20 14:40:40;;;;;;;;;;;;;;;18.85;62.63;101305.23;2350534;75;51474;-79
2022/10/20 14:43:45;;;;;;;;;;;;;;;18.85;62.63;101309.76;2350671;75;51490;-79
2022/10/20 14:46:47;;;;;;;;;;;;;;;18.83;62.69;101309.95;2350769;75;50894;-79
2022/10/20 14:49:50;;;;;;;;;;;;;;;18.84;62.62;101313.46;2314250;75;50200;-79
2022/10/20 14:52:51;;;;;;;;;;;;;;;18.83;62.58;101313.97;2350666;75;52012;-79
2022/10/20 14:55:53;;;;;;;;;;;;;;;18.83;62.51;101300.56;2350628;75;51404;-79
2022/10/20 14:59:01;;;;;;;;;;;;;;;18.83;62.50;101287.16;2350679;75;50273;-79
2022/10/20 15:02:11;;;;;;;;;;;;;;;18.82;62.43;101277.42;2314340;75;50142;-78
2022/10/20 15:05:20;;;;;;;;;;;;;;;18.82;62.36;101269.89;2332974;75;50196;-79
2022/10/20 15:08:23;;;;;;;;;;;;;;;18.83;62.37;101258.14;2277524;77;51553;-79
2022/10/20 15:11:25;;;;;;;;;;;;;;;18.81;62.27;101248.95;2311360;77;51412;-79
2022/10/20 15:14:27;;;;;;;;;;;;;;;18.82;62.30;101251.12;2277146;77;51592;-80
2022/10/20 15:17:30;;;;;;;;;;;;;;;18.82;62.27;101259.16;2310767;77;51432;-79
2022/10/20 15:20:33;;;;;;;;;;;;;;;18.81;62.24;101251.63;2310095;77;51573;-79
2022/10/20 15:23:35;;;;;;;;;;;;;;;18.81;62.23;101256.99;2310496;77;50721;-79
2022/10/20 15:26:36;;;;;;;;;;;;;;;18.81;62.19;101252.97;2277072;77;52480;-79
2022/10/20 15:29:38;;;;;;;;;;;;;;;18.82;62.13;101249.27;2276987;77;51534;-80
2022/10/20 15:32:39;;;;;;;;;;;;;;;18.80;62.10;101253.95;2315212;75;51489;-79
2022/10/20 15:35:45;;;;;;;;;;;;;;;18.79;62.12;101245.59;2292435;77;51637;-79
2022/10/20 15:38:44;;;;;;;;;;;;;;;18.79;62.05;101246.94;2310112;77;22405;-79
2022/10/20 15:41:46;;;;;;;;;;;;;;;18.81;62.06;101248.95;2275523;77;51479;-79